Accueil
METAR-TAF:

METAR-TAF

Aéroports :

Aérodrome d'El Hierro

El Hierro, Espagne

latitude: 27-49N, longitude: 017-53W, altitude: 32 m

Observation

Le bulletin a été fait il y a 31 minutes, à 21:30 UTC
Vent 10 kt de nord, variant entre nord/nord-ouest et nord-est
Température 18°C
Humidité 77%
Pression 1022 hPa
Visibilité 10 km ou plus
Nuages fragmentés à une hauteur de 2600 ft

METAR: GCHI 272130Z AUTO 01010KT 340V050 9999 BKN026 18/14 Q1022

Heure: 22:01 (22:01 UTC)

Prévision

Le bulletin a été fait il y a 2 heures et 1 minutes, à 20:00 UTC
Prévision valable du 27 à 21 UTC au 28 à 21 UTC
Vent 10 kt de nord
Visibilité 10 km ou plus
Nuages épars à une hauteur de 2500 ft

TAF: GCHI 272000Z 2721/2821 36010KT 9999 SCT025 TX22/2814Z TN17/2806Z

Observations et prévisions météorologiques de plus de 4000 aéroports (messages METAR et TAF).

Les stations disponibles sont représentées par des disques jaunes et rouges sur la carte.

Passer la souris dessus pour voir le nom de la station.

Cliquer dessus pour voir les observations et prévisions météorologiques.

Pour changer de carte: cliquez sur les boutons verts avec une croix noire pour zoomer, sur le bouton vert avec un tiret pour effectuer un zoom arrière, ou sur les flèches vertes pour les cartes adjacentes.


METAR-TAF: